createdAt,value
2019-04-01T00:00:10.653Z,58.69
2019-04-01T00:01:10.662Z,58.79
2019-04-01T00:02:10.635Z,58.69
2019-04-01T00:03:10.614Z,58.69
2019-04-01T00:04:10.601Z,58.59
2019-04-01T00:05:10.589Z,58.79
2019-04-01T00:06:10.610Z,59.00
2019-04-01T00:07:10.567Z,58.79
2019-04-01T00:08:10.559Z,59.10
2019-04-01T00:09:10.543Z,59.13
2019-04-01T00:10:10.540Z,59.34
2019-04-01T00:11:10.555Z,59.41
2019-04-01T00:12:10.573Z,59.03
2019-04-01T00:13:10.501Z,58.89
2019-04-01T00:14:10.607Z,59.10
2019-04-01T00:15:10.480Z,58.82
2019-04-01T00:16:10.470Z,59.10
2019-04-01T00:17:10.477Z,59.23
2019-04-01T00:18:10.445Z,59.34
2019-04-01T00:19:10.431Z,59.95
2019-04-01T00:20:10.429Z,59.13
2019-04-01T00:21:10.406Z,59.67
2019-04-01T00:22:10.487Z,59.57
2019-04-01T00:23:10.551Z,59.75
2019-04-01T00:24:10.375Z,59.78
2019-04-01T00:25:10.373Z,59.99
2019-04-01T00:26:10.351Z,60.53
2019-04-01T00:27:10.362Z,60.32
2019-04-01T00:28:10.393Z,60.32
2019-04-01T00:29:10.323Z,60.42
2019-04-01T00:30:10.309Z,60.63
2019-04-01T00:31:10.296Z,60.32
2019-04-01T00:32:10.311Z,60.32
2019-04-01T00:33:10.272Z,60.63
2019-04-01T00:34:10.265Z,61.05
2019-04-01T00:35:10.252Z,61.07
2019-04-01T00:36:10.245Z,61.46
2019-04-01T00:37:10.249Z,61.38
2019-04-01T00:38:10.217Z,61.38
2019-04-01T00:39:10.205Z,60.97
2019-04-01T00:40:10.196Z,60.66
2019-04-01T00:41:10.187Z,60.97
2019-04-01T00:42:10.201Z,60.94
2019-04-01T00:43:10.162Z,60.32
2019-04-01T00:44:10.148Z,60.97
2019-04-01T00:45:10.140Z,61.05
2019-04-01T00:46:10.157Z,61.05
2019-04-01T00:47:10.114Z,60.97
2019-04-01T00:48:10.140Z,60.97
2019-04-01T00:49:10.097Z,61.72
2019-04-01T00:50:10.081Z,61.80
2019-04-01T00:51:10.073Z,61.59
2019-04-01T00:52:10.125Z,61.49
2019-04-01T00:53:10.072Z,61.69
2019-04-01T00:54:10.036Z,61.72
2019-04-01T00:55:10.039Z,61.93
2019-04-01T00:56:10.019Z,61.59
2019-04-01T00:57:10.004Z,61.90
2019-04-01T00:58:10.015Z,61.90
2019-04-01T00:59:09.980Z,61.49
2019-04-01T01:00:09.974Z,62.01
2019-04-01T01:01:09.960Z,61.80
2019-04-01T01:02:09.953Z,62.04
2019-04-01T01:03:09.971Z,62.01
2019-04-01T01:04:09.924Z,61.90
2019-04-01T01:05:09.923Z,61.87
2019-04-01T01:06:09.902Z,61.69
2019-04-01T01:07:09.899Z,61.80
2019-04-01T01:08:09.901Z,61.59
2019-04-01T01:09:09.869Z,61.38
2019-04-01T01:10:09.858Z,60.84
2019-04-01T01:11:09.847Z,61.05
2019-04-01T01:12:09.834Z,60.94
2019-04-01T01:13:09.856Z,60.63
2019-04-01T01:14:09.852Z,61.38
2019-04-01T01:15:09.805Z,61.67
2019-04-01T01:16:09.815Z,61.28
2019-04-01T01:17:09.791Z,61.57
2019-04-01T01:18:09.796Z,61.38
2019-04-01T01:19:09.773Z,61.46
2019-04-01T01:20:09.743Z,61.67
2019-04-01T01:21:09.732Z,61.80
2019-04-01T01:22:09.721Z,61.80
2019-04-01T01:23:09.710Z,61.59
2019-04-01T01:24:09.723Z,61.80
2019-04-01T01:25:09.685Z,61.41
2019-04-01T01:26:09.680Z,62.21
2019-04-01T01:27:09.668Z,61.69
2019-04-01T01:28:09.653Z,61.80
2019-04-01T01:29:09.670Z,62.01
2019-04-01T01:30:09.630Z,61.69
2019-04-01T01:31:09.616Z,61.80
2019-04-01T01:32:09.606Z,61.59
2019-04-01T01:33:09.604Z,61.57
2019-04-01T01:34:09.615Z,61.69
2019-04-01T01:35:09.601Z,61.93
2019-04-01T01:36:09.571Z,61.93
2019-04-01T01:37:09.556Z,61.93
2019-04-01T01:38:09.540Z,61.93
2019-04-01T01:39:09.571Z,62.04
2019-04-01T01:40:09.520Z,61.72
2019-04-01T01:41:10.428Z,61.93
2019-04-01T01:42:09.503Z,61.93
2019-04-01T01:43:09.488Z,62.04
2019-04-01T01:44:09.502Z,61.96
2019-04-01T01:45:09.487Z,62.45
2019-04-01T01:46:09.452Z,62.45
2019-04-01T01:47:09.440Z,62.24
2019-04-01T01:48:09.427Z,61.83
2019-04-01T01:49:09.427Z,61.83
2019-04-01T01:50:09.431Z,62.24
2019-04-01T01:51:09.405Z,62.14
2019-04-01T01:52:09.383Z,62.24
2019-04-01T01:53:09.403Z,61.52
2019-04-01T01:54:09.362Z,62.04
2019-04-01T01:55:09.373Z,62.11
2019-04-01T01:56:09.339Z,62.11
2019-04-01T01:57:09.334Z,62.14
2019-04-01T01:58:09.328Z,61.93
2019-04-01T01:59:09.311Z,61.83
2019-04-01T02:00:09.327Z,61.80
2019-04-01T02:01:09.284Z,61.83
2019-04-01T02:02:09.279Z,62.14
2019-04-01T02:03:09.259Z,61.18
2019-04-01T02:04:09.250Z,62.04
2019-04-01T02:05:09.269Z,62.11
2019-04-01T02:06:09.235Z,61.69
2019-04-01T02:07:09.221Z,62.01
2019-04-01T02:08:09.207Z,61.93
2019-04-01T02:09:09.196Z,62.01
2019-04-01T02:10:09.219Z,61.90
2019-04-01T02:11:09.173Z,61.80
2019-04-01T02:12:09.171Z,61.69
2019-04-01T02:13:09.151Z,62.14
2019-04-01T02:14:09.149Z,62.24
2019-04-01T02:15:09.131Z,61.72
2019-04-01T02:16:09.283Z,62.04
2019-04-01T02:17:09.113Z,62.14
2019-04-01T02:18:09.147Z,62.04
2019-04-01T02:19:09.090Z,62.14
2019-04-01T02:20:09.117Z,62.35
2019-04-01T02:21:09.061Z,62.14
2019-04-01T02:22:09.050Z,62.87
2019-04-01T02:23:09.042Z,62.66
2019-04-01T02:24:09.035Z,62.45
2019-04-01T02:25:09.123Z,62.48
2019-04-01T02:26:09.025Z,62.35
2019-04-01T02:27:08.996Z,61.83
2019-04-01T02:28:08.991Z,62.14
2019-04-01T02:29:08.979Z,61.72
2019-04-01T02:30:08.966Z,61.72
2019-04-01T02:31:08.985Z,61.93
2019-04-01T02:32:08.948Z,61.59
2019-04-01T02:33:08.940Z,62.11
2019-04-01T02:34:08.922Z,61.38
2019-04-01T02:35:08.917Z,61.80
2019-04-01T02:36:08.925Z,61.90
2019-04-01T02:37:08.888Z,62.04
2019-04-01T02:38:08.880Z,62.35
2019-04-01T02:39:08.870Z,61.62
2019-04-01T02:40:08.860Z,62.04
2019-04-01T02:41:08.871Z,61.52
2019-04-01T02:42:08.853Z,62.04
2019-04-01T02:43:08.841Z,61.69
2019-04-01T02:44:08.816Z,61.83
2019-04-01T02:45:08.805Z,61.62
2019-04-01T02:46:08.814Z,62.06
2019-04-01T02:47:08.798Z,62.48
2019-04-01T02:48:08.778Z,62.27
2019-04-01T02:49:08.761Z,62.68
2019-04-01T02:50:08.745Z,62.79
2019-04-01T02:51:08.770Z,62.68
2019-04-01T02:52:08.728Z,62.68
2019-04-01T02:53:08.717Z,62.48
2019-04-01T02:54:08.712Z,62.58
2019-04-01T02:55:08.689Z,62.58
2019-04-01T02:56:08.680Z,62.79
2019-04-01T02:57:08.696Z,62.24
2019-04-01T02:58:08.678Z,61.76
2019-04-01T02:59:08.648Z,62.68
2019-04-01T03:00:08.640Z,62.37
2019-04-01T03:01:08.622Z,61.65
2019-04-01T03:02:08.634Z,62.27
2019-04-01T03:03:08.618Z,62.68
2019-04-01T03:04:08.607Z,62.89
2019-04-01T03:05:08.580Z,63.20
2019-04-01T03:06:08.576Z,62.89
2019-04-01T03:07:08.595Z,63.13
2019-04-01T03:08:08.595Z,63.20
2019-04-01T03:09:08.535Z,63.34
2019-04-01T03:10:08.535Z,63.44
2019-04-01T03:11:10.674Z,63.20
2019-04-01T03:12:08.523Z,63.44
2019-04-01T03:13:08.512Z,63.44
2019-04-01T03:14:08.520Z,63.13
2019-04-01T03:15:08.482Z,63.65
2019-04-01T03:16:08.470Z,63.65
2019-04-01T03:17:08.537Z,64.06
2019-04-01T03:18:08.452Z,63.96
2019-04-01T03:19:08.423Z,63.75
2019-04-01T03:20:08.422Z,63.54
2019-04-01T03:21:08.427Z,63.54
2019-04-01T03:22:08.430Z,63.13
2019-04-01T03:23:08.567Z,63.75
2019-04-01T03:24:08.372Z,63.54
2019-04-01T03:25:08.484Z,63.44
2019-04-01T03:26:08.345Z,63.23
2019-04-01T03:27:08.339Z,63.65
2019-04-01T03:28:08.350Z,63.41
2019-04-01T03:29:08.407Z,63.13
2019-04-01T03:30:08.325Z,63.23
2019-04-01T03:31:08.342Z,63.34
2019-04-01T03:32:08.285Z,63.23
2019-04-01T03:33:08.358Z,63.13
2019-04-01T03:34:08.257Z,64.17
2019-04-01T03:35:08.253Z,63.85
2019-04-01T03:36:08.241Z,63.44
2019-04-01T03:37:08.238Z,63.85
2019-04-01T03:38:08.238Z,63.54
2019-04-01T03:39:08.206Z,63.96
2019-04-01T03:40:08.317Z,63.96
2019-04-01T03:41:08.186Z,63.78
2019-04-01T03:42:08.174Z,63.65
2019-04-01T03:43:08.210Z,63.89
2019-04-01T03:44:08.175Z,64.92
2019-04-01T03:45:08.137Z,64.89
2019-04-01T03:46:08.128Z,64.20
2019-04-01T03:47:08.121Z,64.20
2019-04-01T03:48:08.134Z,64.20
2019-04-01T03:49:08.132Z,64.37
2019-04-01T03:50:08.083Z,65.13
2019-04-01T03:51:08.083Z,65.13
2019-04-01T03:52:10.379Z,64.72
2019-04-01T03:53:08.057Z,64.72
2019-04-01T03:54:08.073Z,64.61
2019-04-01T03:55:08.040Z,64.58
2019-04-01T03:56:08.029Z,64.82
2019-04-01T03:57:08.019Z,64.82
2019-04-01T03:58:08.000Z,64.92
2019-04-01T03:59:08.021Z,64.51
2019-04-01T04:00:07.983Z,64.58
2019-04-01T04:01:07.967Z,64.48
2019-04-01T04:02:07.957Z,63.85
2019-04-01T04:03:07.956Z,63.75
2019-04-01T04:04:07.964Z,63.65
2019-04-01T04:05:07.937Z,63.99
2019-04-01T04:06:07.917Z,64.17
2019-04-01T04:07:07.906Z,64.61
2019-04-01T04:08:07.889Z,64.30
2019-04-01T04:09:07.905Z,65.13
2019-04-01T04:10:07.868Z,64.20
2019-04-01T04:11:07.863Z,64.92
2019-04-01T04:12:07.846Z,64.92
2019-04-01T04:13:07.963Z,64.51
2019-04-01T04:14:07.848Z,64.95
2019-04-01T04:15:07.854Z,65.16
2019-04-01T04:16:07.812Z,64.51
2019-04-01T04:17:07.795Z,64.95
2019-04-01T04:18:07.782Z,65.16
2019-04-01T04:19:07.818Z,64.51
2019-04-01T04:20:07.759Z,65.44
2019-04-01T04:21:07.750Z,64.72
2019-04-01T04:22:07.750Z,64.82
2019-04-01T04:23:07.732Z,64.72
2019-04-01T04:24:07.728Z,64.82
2019-04-01T04:25:07.732Z,64.72
2019-04-01T04:26:07.694Z,65.13
2019-04-01T04:27:11.217Z,64.61
2019-04-01T04:28:07.675Z,64.82
2019-04-01T04:29:07.674Z,64.51
2019-04-01T04:30:07.676Z,64.85
2019-04-01T04:31:07.643Z,64.51
2019-04-01T04:32:07.767Z,64.82
2019-04-01T04:33:07.624Z,64.61
2019-04-01T04:34:07.612Z,64.82
2019-04-01T04:35:07.640Z,64.61
2019-04-01T04:36:07.589Z,65.13
2019-04-01T04:37:07.597Z,64.82
2019-04-01T04:38:07.569Z,64.61
2019-04-01T04:39:07.555Z,64.61
2019-04-01T04:40:07.578Z,64.72
2019-04-01T04:41:07.536Z,65.03
2019-04-01T04:42:07.522Z,64.54
2019-04-01T04:43:07.515Z,64.51
2019-04-01T04:44:07.517Z,65.23
2019-04-01T04:45:07.515Z,65.16
2019-04-01T04:46:07.477Z,64.92
2019-04-01T04:47:07.479Z,64.95
2019-04-01T04:48:07.464Z,65.26
2019-04-01T04:49:07.445Z,65.13
2019-04-01T04:50:07.469Z,65.16
2019-04-01T04:51:07.430Z,65.23
2019-04-01T04:52:07.419Z,65.13
2019-04-01T04:53:07.403Z,65.03
2019-04-01T04:54:07.390Z,64.92
2019-04-01T04:55:07.396Z,65.13
2019-04-01T04:56:07.406Z,64.33
2019-04-01T04:57:07.361Z,65.13
2019-04-01T04:58:07.358Z,64.92
2019-04-01T04:59:07.339Z,64.61
2019-04-01T05:00:07.326Z,64.51
2019-04-01T05:01:07.353Z,64.30
2019-04-01T05:02:07.319Z,64.92
2019-04-01T05:03:07.311Z,64.72
2019-04-01T05:04:07.287Z,64.82
2019-04-01T05:05:07.278Z,64.33
2019-04-01T05:06:07.293Z,64.92
2019-04-01T05:07:07.250Z,65.03
2019-04-01T05:08:07.243Z,65.03
2019-04-01T05:09:07.243Z,65.26
2019-04-01T05:10:07.225Z,64.82
2019-04-01T05:11:07.239Z,65.26
2019-04-01T05:12:07.199Z,65.06
2019-04-01T05:13:07.194Z,65.23
2019-04-01T05:14:07.206Z,64.92
2019-04-01T05:15:07.354Z,65.16
2019-04-01T05:16:07.163Z,64.43
2019-04-01T05:17:07.295Z,65.26
2019-04-01T05:18:07.136Z,65.26
2019-04-01T05:19:07.132Z,64.54
2019-04-01T05:20:07.110Z,65.47
2019-04-01T05:21:07.285Z,64.92
2019-04-01T05:22:07.096Z,64.95
2019-04-01T05:23:07.078Z,64.95
2019-04-01T05:24:07.072Z,64.72
2019-04-01T05:25:07.092Z,64.54
2019-04-01T05:26:07.090Z,65.16
2019-04-01T05:27:07.064Z,64.95
2019-04-01T05:28:07.034Z,64.72
2019-04-01T05:29:07.013Z,64.40
2019-04-01T05:30:07.029Z,64.09
2019-04-01T05:31:06.995Z,64.72
2019-04-01T05:32:07.008Z,64.40
2019-04-01T05:33:06.978Z,64.61
2019-04-01T05:34:06.969Z,64.20
2019-04-01T05:35:06.946Z,65.03
2019-04-01T05:36:06.941Z,64.92
2019-04-01T05:37:08.924Z,64.64
2019-04-01T05:38:06.915Z,64.95
2019-04-01T05:39:06.908Z,64.61
2019-04-01T05:40:06.891Z,64.54
2019-04-01T05:41:06.882Z,65.23
2019-04-01T05:42:06.892Z,65.03
2019-04-01T05:43:06.858Z,64.61
2019-04-01T05:44:06.848Z,64.51
2019-04-01T05:45:06.843Z,64.43
2019-04-01T05:46:06.827Z,64.64
2019-04-01T05:47:06.849Z,64.95
2019-04-01T05:48:06.804Z,65.26
2019-04-01T05:49:06.791Z,64.61
2019-04-01T05:50:06.780Z,64.95
2019-04-01T05:51:06.776Z,64.40
2019-04-01T05:52:06.788Z,64.40
2019-04-01T05:53:06.754Z,64.30
2019-04-01T05:54:06.748Z,63.78
2019-04-01T05:55:08.943Z,64.30
2019-04-01T05:56:06.717Z,64.20
2019-04-01T05:57:06.738Z,63.99
2019-04-01T05:58:06.699Z,63.89
2019-04-01T05:59:06.689Z,63.78
2019-04-01T06:00:06.676Z,64.17
2019-04-01T06:01:06.664Z,64.09
2019-04-01T06:02:06.683Z,63.57
2019-04-01T06:03:06.651Z,63.85
2019-04-01T06:04:06.640Z,65.10
2019-04-01T06:05:06.622Z,64.09
2019-04-01T06:06:06.634Z,63.78
2019-04-01T06:07:06.625Z,64.27
2019-04-01T06:08:06.617Z,63.23
2019-04-01T06:09:06.575Z,66.24
2019-04-01T06:10:06.568Z,71.59
2019-04-01T06:11:06.556Z,70.80
2019-04-01T06:12:06.579Z,68.59
2019-04-01T06:13:06.541Z,64.52
2019-04-01T06:14:06.532Z,62.97
2019-04-01T06:15:06.512Z,62.24
2019-04-01T06:16:06.504Z,62.58
2019-04-01T06:17:06.492Z,62.37
2019-04-01T06:18:06.505Z,62.48
2019-04-01T06:19:06.473Z,62.27
2019-04-01T06:20:06.509Z,62.37
2019-04-01T06:21:06.451Z,62.27
2019-04-01T06:22:06.524Z,61.34
2019-04-01T06:23:06.457Z,62.06
2019-04-01T06:24:06.507Z,62.06
2019-04-01T06:25:06.405Z,61.24
2019-04-01T06:26:06.495Z,61.93
2019-04-01T06:27:06.380Z,61.55
2019-04-01T06:28:06.422Z,61.96
2019-04-01T06:29:06.372Z,61.76
2019-04-01T06:30:06.360Z,61.96
2019-04-01T06:31:06.339Z,61.76
2019-04-01T06:32:06.420Z,62.06
2019-04-01T06:33:06.348Z,61.86
2019-04-01T06:34:06.340Z,61.93
2019-04-01T06:35:06.373Z,61.76
2019-04-01T06:36:06.374Z,61.76
2019-04-01T06:37:06.314Z,61.76
2019-04-01T06:38:06.275Z,61.72
2019-04-01T06:39:06.323Z,62.04
2019-04-01T06:40:06.291Z,61.83
2019-04-01T06:41:06.267Z,60.97
2019-04-01T06:42:07.276Z,60.87
2019-04-01T06:43:06.232Z,60.56
2019-04-01T06:44:06.253Z,60.25
2019-04-01T06:45:06.205Z,60.14
2019-04-01T06:46:06.196Z,59.73
2019-04-01T06:47:06.168Z,60.14
2019-04-01T06:48:06.166Z,60.14
2019-04-01T06:49:06.178Z,59.39
2019-04-01T06:50:06.153Z,60.14
2019-04-01T06:51:06.126Z,59.80
2019-04-01T06:52:06.109Z,59.19
2019-04-01T06:53:06.121Z,59.08
2019-04-01T06:54:06.115Z,59.39
2019-04-01T06:55:06.090Z,59.11
2019-04-01T06:56:06.074Z,58.80
2019-04-01T06:57:06.057Z,58.98
2019-04-01T06:58:06.075Z,58.87
2019-04-01T06:59:06.061Z,58.87
2019-04-01T07:00:06.064Z,58.87
2019-04-01T07:01:06.008Z,58.54
2019-04-01T07:02:06.001Z,58.46
2019-04-01T07:03:05.985Z,58.36
2019-04-01T07:04:05.974Z,58.23
2019-04-01T07:05:05.995Z,58.02
2019-04-01T07:06:05.952Z,57.92
2019-04-01T07:07:18.219Z,57.40
2019-04-01T07:08:06.929Z,57.40
2019-04-01T07:09:05.922Z,57.37
2019-04-01T07:10:05.943Z,57.79
2019-04-01T07:11:05.901Z,57.48
2019-04-01T07:12:05.889Z,57.60
2019-04-01T07:13:05.884Z,57.58
2019-04-01T07:14:05.869Z,57.79
2019-04-01T07:15:05.883Z,57.58
2019-04-01T07:16:15.514Z,57.37
2019-04-01T07:17:06.897Z,57.34
2019-04-01T07:18:05.823Z,57.58
2019-04-01T07:19:05.809Z,57.48
2019-04-01T07:20:08.744Z,57.24
2019-04-01T07:21:05.786Z,57.34
2019-04-01T07:22:05.775Z,57.17
2019-04-01T07:23:05.779Z,56.41
2019-04-01T07:24:05.774Z,56.00
2019-04-01T07:25:05.773Z,56.00
2019-04-01T07:26:05.760Z,55.69
2019-04-01T07:27:08.057Z,56.31
2019-04-01T07:28:05.714Z,56.31
2019-04-01T07:29:05.702Z,55.69
2019-04-01T07:30:05.699Z,55.38
2019-04-01T07:31:05.723Z,55.36
2019-04-01T07:32:05.685Z,55.77
2019-04-01T07:33:05.668Z,55.54
2019-04-01T07:34:05.648Z,54.74
2019-04-01T07:35:05.677Z,54.40
2019-04-01T07:36:05.661Z,54.74
2019-04-01T07:37:05.614Z,54.50
2019-04-01T07:38:05.607Z,54.30
2019-04-01T07:39:05.598Z,54.09
2019-04-01T07:40:05.583Z,53.86
2019-04-01T07:41:05.635Z,54.19
2019-04-01T07:42:05.559Z,53.66
2019-04-01T07:43:05.550Z,53.86
2019-04-01T07:44:05.534Z,52.73
2019-04-01T07:45:05.523Z,53.03
2019-04-01T07:46:08.173Z,52.62
2019-04-01T07:47:05.510Z,54.38
2019-04-01T07:48:05.494Z,54.25
2019-04-01T07:49:05.641Z,54.25
2019-04-01T07:50:05.486Z,53.74
2019-04-01T07:51:07.300Z,52.91
2019-04-01T07:52:05.446Z,52.81
2019-04-01T07:53:05.432Z,52.68
2019-04-01T07:54:05.421Z,52.68
2019-04-01T07:55:05.411Z,52.68
2019-04-01T07:56:05.423Z,52.03
2019-04-01T07:57:05.414Z,52.45
2019-04-01T07:58:05.378Z,52.03
2019-04-01T07:59:05.369Z,52.03
2019-04-01T08:00:05.357Z,51.52
2019-04-01T08:01:05.378Z,51.52
2019-04-01T08:02:05.341Z,51.62
2019-04-01T08:03:05.320Z,51.21
2019-04-01T08:04:05.309Z,50.46
2019-04-01T08:05:05.306Z,50.18
2019-04-01T08:06:05.295Z,51.50
2019-04-01T08:07:05.316Z,51.18
2019-04-01T08:08:05.265Z,50.38
2019-04-01T08:09:05.273Z,51.18
2019-04-01T08:10:05.245Z,51.29
2019-04-01T08:11:05.233Z,51.81
2019-04-01T08:12:05.257Z,51.60
2019-04-01T08:13:05.209Z,51.47
2019-04-01T08:14:05.199Z,51.26
2019-04-01T08:15:05.202Z,50.73
2019-04-01T08:16:05.170Z,50.65
2019-04-01T08:17:05.232Z,50.65
2019-04-01T08:18:05.168Z,50.75
2019-04-01T08:19:05.142Z,50.13
2019-04-01T08:20:05.160Z,50.44
2019-04-01T08:21:05.116Z,51.14
2019-04-01T08:22:05.275Z,50.75
2019-04-01T08:23:05.104Z,51.34
2019-04-01T08:24:05.237Z,51.24
2019-04-01T08:25:05.087Z,50.73
2019-04-01T08:26:05.062Z,50.62
2019-04-01T08:27:07.357Z,50.60
2019-04-01T08:28:05.062Z,50.50
2019-04-01T08:29:05.035Z,50.19
2019-04-01T08:30:05.024Z,50.73
2019-04-01T08:31:05.010Z,50.40
2019-04-01T08:32:04.997Z,51.09
2019-04-01T08:33:05.051Z,50.68
2019-04-01T08:34:04.977Z,50.06
2019-04-01T08:35:04.963Z,50.99
2019-04-01T08:36:04.953Z,50.35
2019-04-01T08:37:04.944Z,50.27
2019-04-01T08:38:04.953Z,49.73
2019-04-01T08:39:04.923Z,49.84
2019-04-01T08:40:04.912Z,49.52
2019-04-01T08:41:04.914Z,49.73
2019-04-01T08:42:04.893Z,49.43
2019-04-01T08:43:04.912Z,49.22
2019-04-01T08:44:04.863Z,49.91
2019-04-01T08:45:04.857Z,49.71
2019-04-01T08:46:04.854Z,49.30
2019-04-01T08:47:04.852Z,49.51
2019-04-01T08:48:04.844Z,49.09
2019-04-01T08:49:07.785Z,48.97
2019-04-01T08:50:04.804Z,48.35
2019-04-01T08:51:04.787Z,49.48
2019-04-01T08:52:04.783Z,48.46
2019-04-01T08:53:04.783Z,48.22
2019-04-01T08:54:04.764Z,48.35
2019-04-01T08:55:04.751Z,49.46
2019-04-01T08:56:04.735Z,48.43
2019-04-01T08:57:04.723Z,48.43
2019-04-01T08:58:04.747Z,48.13
2019-04-01T08:59:04.697Z,47.81
2019-04-01T09:00:04.684Z,47.71
2019-04-01T09:01:04.676Z,47.61
2019-04-01T09:02:17.208Z,47.92
2019-04-01T09:03:05.687Z,48.02
2019-04-01T09:04:04.704Z,47.59
2019-04-01T09:05:04.800Z,47.18
2019-04-01T09:06:04.819Z,47.28
2019-04-01T09:07:04.645Z,47.28
2019-04-01T09:08:04.745Z,47.59
2019-04-01T09:09:04.676Z,46.54
2019-04-01T09:10:04.618Z,46.95
2019-04-01T09:11:04.562Z,47.36
2019-04-01T09:12:04.565Z,46.44
2019-04-01T09:13:04.539Z,46.01
2019-04-01T09:14:04.560Z,46.42
2019-04-01T09:15:04.519Z,46.52
2019-04-01T09:16:04.513Z,46.62
2019-04-01T09:17:04.525Z,45.09
2019-04-01T09:18:04.525Z,46.31
2019-04-01T09:19:04.502Z,45.09
2019-04-01T09:20:04.480Z,46.01
2019-04-01T09:21:04.452Z,45.50
2019-04-01T09:22:04.450Z,45.70
2019-04-01T09:23:04.428Z,46.31
2019-04-01T09:24:04.456Z,46.81
2019-04-01T09:25:04.448Z,46.70
2019-04-01T09:26:04.401Z,46.91
2019-04-01T09:27:04.499Z,46.17
2019-04-01T09:28:04.379Z,45.97
2019-04-01T09:29:04.470Z,45.76
2019-04-01T09:30:04.381Z,45.35
2019-04-01T09:31:04.411Z,44.71
2019-04-01T09:32:04.347Z,45.04
2019-04-01T09:33:04.402Z,45.15
2019-04-01T09:34:04.342Z,45.45
2019-04-01T09:35:04.299Z,45.12
2019-04-01T09:36:04.287Z,45.45
2019-04-01T09:37:04.286Z,44.82
2019-04-01T09:38:04.266Z,44.92
2019-04-01T09:39:04.364Z,44.82
2019-04-01T09:40:04.238Z,45.00
2019-04-01T09:41:04.267Z,44.90
2019-04-01T09:42:04.221Z,44.38
2019-04-01T09:43:04.290Z,45.00
2019-04-01T09:44:04.231Z,44.98
2019-04-01T09:45:04.191Z,45.00
2019-04-01T09:46:04.174Z,44.98
2019-04-01T09:47:04.189Z,45.08
2019-04-01T09:48:04.152Z,44.98
2019-04-01T09:49:04.224Z,43.22
2019-04-01T09:50:04.141Z,43.35
2019-04-01T09:51:04.127Z,43.44
2019-04-01T09:52:04.162Z,43.55
2019-04-01T09:53:04.105Z,43.04
2019-04-01T09:54:04.094Z,43.24
2019-04-01T09:55:06.142Z,43.04
2019-04-01T09:56:04.067Z,43.24
2019-04-01T09:57:16.797Z,43.55
2019-04-01T09:58:05.039Z,42.53
2019-04-01T09:59:04.032Z,42.43
2019-04-01T10:00:04.049Z,42.61
2019-04-01T10:01:04.009Z,42.32
2019-04-01T10:02:04.000Z,43.53
2019-04-01T10:03:03.985Z,42.83
2019-04-01T10:04:03.978Z,43.53
2019-04-01T10:05:04.042Z,42.30
2019-04-01T10:06:03.961Z,42.79
2019-04-01T10:07:03.940Z,42.71
2019-04-01T10:08:03.935Z,43.43
2019-04-01T10:09:03.923Z,42.90
2019-04-01T10:10:03.934Z,42.69
2019-04-01T10:11:03.924Z,42.49
2019-04-01T10:12:03.890Z,42.49
2019-04-01T10:13:03.890Z,42.59
2019-04-01T10:14:03.880Z,42.18
2019-04-01T10:15:03.884Z,42.67
2019-04-01T10:16:03.858Z,42.47
2019-04-01T10:17:03.863Z,42.36
2019-04-01T10:18:03.823Z,41.24
2019-04-01T10:19:03.809Z,41.53
2019-04-01T10:20:03.810Z,42.47
2019-04-01T10:21:03.821Z,42.24
2019-04-01T10:22:03.782Z,42.45
2019-04-01T10:23:03.767Z,42.14
2019-04-01T10:24:03.761Z,42.43
2019-04-01T10:25:03.783Z,41.30
2019-04-01T10:26:03.740Z,41.41
2019-04-01T10:27:03.728Z,41.30
2019-04-01T10:28:03.710Z,40.28
2019-04-01T10:29:03.714Z,40.88
2019-04-01T10:30:03.691Z,39.45
2019-04-01T10:31:03.702Z,40.78
2019-04-01T10:32:03.668Z,40.26
2019-04-01T10:33:03.659Z,40.37
2019-04-01T10:34:03.655Z,40.55
2019-04-01T10:35:03.650Z,40.25
2019-04-01T10:36:03.770Z,40.94
2019-04-01T10:37:03.624Z,41.14
2019-04-01T10:38:03.607Z,40.64
2019-04-01T10:39:03.600Z,40.45
2019-04-01T10:40:03.581Z,39.53
2019-04-01T10:41:03.609Z,38.82
2019-04-01T10:42:03.569Z,39.13
2019-04-01T10:43:03.547Z,40.35
2019-04-01T10:44:04.920Z,39.92
2019-04-01T10:45:03.534Z,39.62
2019-04-01T10:46:03.548Z,39.31
2019-04-01T10:47:03.516Z,38.90
2019-04-01T10:48:03.517Z,38.80
2019-04-01T10:49:03.549Z,40.03
2019-04-01T10:50:03.543Z,39.31
2019-04-01T10:51:03.513Z,39.21
2019-04-01T10:52:03.528Z,40.01
2019-04-01T10:53:03.493Z,40.12
2019-04-01T10:54:03.511Z,39.80
2019-04-01T10:55:03.479Z,39.29
2019-04-01T10:56:03.470Z,38.97
2019-04-01T10:57:03.408Z,37.77
2019-04-01T10:58:03.564Z,38.76
2019-04-01T10:59:03.381Z,39.07
2019-04-01T11:00:03.389Z,38.36
2019-04-01T11:01:03.461Z,38.67
2019-04-01T11:02:03.367Z,38.87
2019-04-01T11:03:06.006Z,38.78
2019-04-01T11:04:03.393Z,39.50
2019-04-01T11:05:03.317Z,38.99
2019-04-01T11:06:03.382Z,39.50
2019-04-01T11:07:03.317Z,39.09
2019-04-01T11:08:03.314Z,38.87
2019-04-01T11:09:03.285Z,39.78
2019-04-01T11:10:03.241Z,39.46
2019-04-01T11:11:03.236Z,39.97
2019-04-01T11:12:03.267Z,39.36
2019-04-01T11:13:03.230Z,38.63
2019-04-01T11:14:03.200Z,38.93
2019-04-01T11:15:03.189Z,38.22
2019-04-01T11:16:03.192Z,38.43
2019-04-01T11:17:04.452Z,37.73
2019-04-01T11:18:03.165Z,38.34
2019-04-01T11:19:03.141Z,38.45
2019-04-01T11:20:03.138Z,38.54
2019-04-01T11:21:03.123Z,38.65
2019-04-01T11:22:03.959Z,38.12
2019-04-01T11:23:04.928Z,37.82
2019-04-01T11:24:03.085Z,38.73
2019-04-01T11:25:03.079Z,38.43
2019-04-01T11:26:03.065Z,37.71
2019-04-01T11:27:03.084Z,39.83
2019-04-01T11:28:03.066Z,38.61
2019-04-01T11:29:03.047Z,38.41
2019-04-01T11:30:03.033Z,39.32
2019-04-01T11:31:03.069Z,38.18
2019-04-01T11:32:03.051Z,37.98
2019-04-01T11:33:03.176Z,38.29
2019-04-01T11:34:03.041Z,37.46
2019-04-01T11:35:03.057Z,36.16
2019-04-01T11:36:02.981Z,37.88
2019-04-01T11:37:03.083Z,37.48
2019-04-01T11:38:03.018Z,36.07
2019-04-01T11:39:02.962Z,36.60
2019-04-01T11:40:02.966Z,37.49
2019-04-01T11:41:02.921Z,38.31
2019-04-01T11:42:03.048Z,37.68
2019-04-01T11:43:04.997Z,38.18
2019-04-01T11:44:02.946Z,38.10
2019-04-01T11:45:05.768Z,37.80
2019-04-01T11:46:02.907Z,37.88
2019-04-01T11:47:02.844Z,38.78
2019-04-01T11:48:02.922Z,36.65
2019-04-01T11:49:02.886Z,37.66
2019-04-01T11:50:02.816Z,37.96
2019-04-01T11:51:02.796Z,37.05
2019-04-01T11:52:02.795Z,37.64
2019-04-01T11:53:02.808Z,36.73
2019-04-01T11:54:02.765Z,37.85
2019-04-01T11:55:06.257Z,37.22
2019-04-01T11:56:02.761Z,36.10
2019-04-01T11:57:02.755Z,36.71
2019-04-01T11:58:02.747Z,36.30
2019-04-01T11:59:02.697Z,36.49
2019-04-01T12:00:02.696Z,36.71
2019-04-01T12:01:02.675Z,37.83
2019-04-01T12:02:02.671Z,37.73
2019-04-01T12:03:02.697Z,38.12
2019-04-01T12:04:02.677Z,38.01
2019-04-01T12:05:02.642Z,37.40
2019-04-01T12:06:02.626Z,36.19
2019-04-01T12:07:02.699Z,36.47
2019-04-01T12:08:02.604Z,37.69
2019-04-01T12:09:02.620Z,36.19
2019-04-01T12:10:02.582Z,36.27
2019-04-01T12:11:02.574Z,36.39
2019-04-01T12:12:03.449Z,36.27
2019-04-01T12:13:02.545Z,36.17
2019-04-01T12:14:05.064Z,36.49
2019-04-01T12:15:02.521Z,35.88
2019-04-01T12:16:02.514Z,35.58
2019-04-01T12:17:02.497Z,35.57
2019-04-01T12:18:02.492Z,35.66
2019-04-01T12:19:02.507Z,36.17
2019-04-01T12:20:02.469Z,36.27
2019-04-01T12:21:02.457Z,36.25
2019-04-01T12:22:02.449Z,36.46
2019-04-01T12:23:02.432Z,35.55
2019-04-01T12:24:02.468Z,36.05
2019-04-01T12:25:02.411Z,35.53
2019-04-01T12:26:14.304Z,35.95
2019-04-01T12:27:03.408Z,35.14
2019-04-01T12:28:02.376Z,35.95
2019-04-01T12:29:02.366Z,35.06
2019-04-01T12:30:02.381Z,35.99
2019-04-01T12:31:02.355Z,36.29
2019-04-01T12:32:02.342Z,37.10
2019-04-01T12:33:02.325Z,36.59
2019-04-01T12:34:02.485Z,35.86
2019-04-01T12:35:02.324Z,36.07
2019-04-01T12:36:02.346Z,36.08
2019-04-01T12:37:02.277Z,35.78
2019-04-01T12:38:02.269Z,35.68
2019-04-01T12:39:02.272Z,35.68
2019-04-01T12:40:02.283Z,36.47
2019-04-01T12:41:02.227Z,35.97
2019-04-01T12:42:02.237Z,37.16
2019-04-01T12:43:02.210Z,37.88
2019-04-01T12:44:02.218Z,36.25
2019-04-01T12:45:02.217Z,36.56
2019-04-01T12:46:02.217Z,36.25
2019-04-01T12:47:02.174Z,36.44
2019-04-01T12:48:02.164Z,35.94
2019-04-01T12:49:02.153Z,35.94
2019-04-01T12:50:02.207Z,36.04
2019-04-01T12:51:02.122Z,36.04
2019-04-01T12:52:02.111Z,36.12